Meteo Giornale » Osservazioni meteo Italia » Roma Fiumicino

ore: 06:20 - Osservazioni Meteo Roma Fiumicino
Lat. 41° 48' N Lon. 12° 14' E Alt. 2 metri s.l.m.

sereno Europe/Rome

1 °C

Sereno

Temp. 24 Ore

1 °C

14 °C

Est/Nord-Est

9.3 Km/h

Dew point -3 °C

Umidità 74 %

Visibilità  10 Km

Il sole sorge alle ore 07:27

Il sole tramonta alle ore 16:42

Data e Ora Cielo e Fenomeni T °C DP °C Um. % Pres. hPa Vis. km Vento km/h
Oggi h: 06:20 sereno Sereno 1 -3 74 1019 10 E/NE 9.3
Oggi h: 05:50 sereno Sereno 2 -3 69 1019 10 N 5.5
Oggi h: 05:20 sereno Sereno 2 -3 69 1019 10 NE 9.3
Oggi h: 04:50 sereno Sereno 1 -3 74 1019 10 NE 11.1
Oggi h: 04:20 sereno Sereno 2 -3 69 1019 10 E/NE 7.4
Oggi h: 03:50 sereno Sereno 2 -2 74 1019 10 E/NE 14.8
Oggi h: 03:20 sereno Sereno 2 -3 69 1019 10 E 7.4
Oggi h: 02:50 sereno Sereno 3 -2 69 1019 10 N 5.5
Oggi h: 02:20 sereno Sereno 3 -2 69 1019 10 NE 14.8
Oggi h: 01:50 sereno Sereno 3 -2 69 1019 10 NE 9.3
Oggi h: 01:20 sereno Sereno 2 -2 74 1019 10 NE 11.1
Oggi h: 00:50 sereno Sereno 3 -1 74 1019 10 NE 7.4
Oggi h: 00:20 sereno Sereno 3 -1 74 1019 10 NE 9.3
Ieri h: 23:50 sereno Sereno 4 -2 64 1019 10 E 9.3
Ieri h: 23:20 sereno Sereno 4 -2 64 1019 10 E/NE 9.3
Ieri h: 22:50 sereno Sereno 3 -1 74 1019 10 E/NE 13
Ieri h: 22:20 sereno Sereno 5 -2 60 1019 10 E/NE 9.3
Ieri h: 21:50 sereno Sereno 4 -2 64 1018 10 E/NE 11.1
Ieri h: 21:20 sereno Sereno 6 -2 56 1018 10 E/NE 7.4
Ieri h: 20:50 sereno Sereno 6 -2 56 1018 10 N 5.5
Ieri h: 20:20 sereno Sereno 5 0 70 1018 10 E/NE 9.3
Ieri h: 19:50 sereno Sereno 5 -1 65 1018 10 N 3.7
Ieri h: 19:20 sereno Sereno 7 0 60 1018 10 N 5.5
Ieri h: 18:50 sereno Sereno 8 0 56 1018 10 NE 7.4
Ieri h: 18:20 sereno Sereno 7 1 65 1018 10 N 9.3
Ieri h: 17:50 sereno Sereno 7 2 70 1017 10 N 7.4
Ieri h: 17:20 sereno Sereno 9 1 57 1017 10 NE 7.4
Ieri h: 16:50 sereno Sereno 11 0 46 1017 10 N 5.5
Ieri h: 16:20 sereno Sereno 11 0 46 1017 10 E/NE 9.3
Ieri h: 15:50 sereno Sereno 13 0 40 1016 10 E 11.1
Ieri h: 15:20 sereno Sereno 14 -1 35 1016 10 N 3.7
Ieri h: 14:50 sereno Sereno 14 -1 35 1016 10 NO 7.4
Ieri h: 14:20 sereno Sereno 14 -2 32 1016 10 NO 9.3
Ieri h: 13:50 sereno Sereno 14 1 41 1016 10 N 5.5
Ieri h: 13:20 sereno Sereno 14 0 38 1017 10 O 9.3
Ieri h: 12:50 sereno Sereno 13 0 40 1017 10 N 5.5
Ieri h: 12:20 sereno Sereno 13 -1 37 1017 10 N 5.5
Ieri h: 11:50 sereno Sereno 12 0 43 1017 10 E/NE 9.3
Ieri h: 11:20 sereno Sereno 12 -1 40 1017 10 E/NE 7.4
Ieri h: 10:50 sereno Sereno 11 -1 43 1018 10 E/NE 9.3
Ieri h: 10:20 sereno Sereno 8 1 61 1018 10 E/NE 9.3
Ieri h: 09:50 sereno Sereno 7 0 60 1018 10 E/NE 9.3
Ieri h: 09:20 sereno Sereno 5 0 70 1018 10 O 7.4
Ieri h: 08:50 sereno Sereno 3 -1 74 1017 10 N 3.7
Ieri h: 08:20 sereno Sereno 3 -2 69 1017 10 N 5.5
Ieri h: 07:50 sereno Sereno 2 -2 74 1017 10 NE 9.3
Ieri h: 07:20 sereno Sereno 2 -2 74 1017 10 E/NE 11.1
Ieri h: 06:50 sereno Sereno 2 -2 74 1017 10 E/NE 13
Ieri h: 06:20 sereno Sereno 2 -2 74 1017 10 E 7.4